< < Back
Terminal Aerodrome Forecast


Current Version              Previous Versions:   1  2  3  4  5  6  7  8  9  

Terminal Aerodrome Forecast

174
FTUS42 KTAE 020528
TAFVLD
TAF
KVLD 020528Z 0206/0306 VRB03KT P6SM SCT250
     FM020900 VRB03KT 5SM BR SCT250
     FM021300 26006KT P6SM FEW040
     FM021700 26010KT P6SM VCTS SCT040CB
     FM030000 00000KT P6SM OVC100=

Latest METAR

902
SAUS70 KWBC 031000 RRL
MTRVLD
METAR KVLD 030953Z AUTO 00000KT 10SM CLR 22/21 A3006 RMK AO2 SLP185
T02170211 TSNO


USA.gov is the U.S. government's official web portal to all federal, state and local government web resources and services.